Time;durP1;ratioP1;P1;durP2;ratioP2;P2;SDS_P1;SDS_P2;PMS_P1;PMS_P2;Temp;Humidity;BMP_temperature;BMP_pressure;BME280_temperature;BME280_humidity;BME280_pressure;Samples;Min_cycle;Max_cycle;Signal;HPM_P1;HPM_P2
2023/06/28 00:01:02;;;;;;;3.57;3.27;;;;;;;;;;5032902;28;20817;-66
2023/06/28 00:03:28;;;;;;;4.97;3.20;;;;;;;;;;5033459;28;20460;-66
2023/06/28 00:05:57;;;;;;;3.77;3.07;;;;;;;;;;5033215;28;20452;-66
2023/06/28 00:08:23;;;;;;;3.33;3.13;;;;;;;;;;5032815;28;20476;-66
2023/06/28 00:10:51;;;;;;;4.10;3.27;;;;;;;;;;5033207;28;20938;-66
2023/06/28 00:13:18;;;;;;;2.67;2.57;;;;;;;;;;5032047;28;20424;-66
2023/06/28 00:15:46;;;;;;;3.10;2.90;;;;;;;;;;5033183;28;21001;-66
2023/06/28 00:18:14;;;;;;;4.13;3.60;;;;;;;;;;5033211;28;20426;-66
2023/06/28 00:20:41;;;;;;;3.47;3.20;;;;;;;;;;5033036;28;20439;-66
2023/06/28 00:23:07;;;;;;;3.47;3.30;;;;;;;;;;5033388;28;20412;-66
2023/06/28 00:25:33;;;;;;;3.27;3.00;;;;;;;;;;5032035;28;20448;-66
2023/06/28 00:28:02;;;;;;;6.13;3.60;;;;;;;;;;5031339;28;20471;-66
2023/06/28 00:30:30;;;;;;;7.57;3.60;;;;;;;;;;5032901;28;20506;-66
2023/06/28 00:32:56;;;;;;;14.43;3.37;;;;;;;;;;5032757;28;20519;-66
2023/06/28 00:35:22;;;;;;;7.43;3.50;;;;;;;;;;5030913;28;20467;-66
2023/06/28 00:37:48;;;;;;;3.50;3.20;;;;;;;;;;5032801;28;20842;-66
2023/06/28 00:40:14;;;;;;;3.73;2.83;;;;;;;;;;5032827;28;20851;-66
2023/06/28 00:42:42;;;;;;;5.00;3.00;;;;;;;;;;5032754;28;20904;-67
2023/06/28 00:45:11;;;;;;;3.30;3.10;;;;;;;;;;5031333;28;20416;-67
2023/06/28 00:47:39;;;;;;;3.23;2.93;;;;;;;;;;5032673;28;20495;-66
2023/06/28 00:50:06;;;;;;;4.03;3.73;;;;;;;;;;5031248;28;20442;-66
2023/06/28 00:52:34;;;;;;;2.93;2.73;;;;;;;;;;5031784;28;20436;-66
2023/06/28 00:55:00;;;;;;;4.13;3.47;;;;;;;;;;5032491;28;20524;-66
2023/06/28 00:57:26;;;;;;;3.70;3.40;;;;;;;;;;5032410;28;20430;-66
2023/06/28 00:59:53;;;;;;;3.53;3.33;;;;;;;;;;5032396;28;20455;-66
2023/06/28 01:02:19;;;;;;;3.73;3.40;;;;;;;;;;5032499;28;20440;-66
2023/06/28 01:04:45;;;;;;;4.30;2.93;;;;;;;;;;5032475;28;20428;-66
2023/06/28 01:07:12;;;;;;;3.37;3.10;;;;;;;;;;5032258;28;20471;-66
2023/06/28 01:09:41;;;;;;;5.17;3.27;;;;;;;;;;5031175;28;20444;-66
2023/06/28 01:12:09;;;;;;;4.10;3.30;;;;;;;;;;5032410;28;20633;-66
2023/06/28 01:14:35;;;;;;;3.37;3.07;;;;;;;;;;5032345;28;20494;-66
2023/06/28 01:17:01;;;;;;;7.80;4.10;;;;;;;;;;5032083;28;20443;-66
2023/06/28 01:19:27;;;;;;;3.07;2.90;;;;;;;;;;5032492;28;20783;-66
2023/06/28 01:22:05;;;;;;;3.67;3.27;;;;;;;;;;5032069;28;20512;-66
2023/06/28 01:24:31;;;;;;;4.17;3.60;;;;;;;;;;5032535;28;20444;-66
2023/06/28 01:26:58;;;;;;;3.40;3.20;;;;;;;;;;5032275;28;20484;-66
2023/06/28 01:29:24;;;;;;;3.87;3.77;;;;;;;;;;5032476;28;20416;-66
2023/06/28 01:31:51;;;;;;;3.77;3.27;;;;;;;;;;5032121;28;20878;-66
2023/06/28 01:34:17;;;;;;;3.17;2.90;;;;;;;;;;5032504;28;20765;-66
2023/06/28 01:36:43;;;;;;;3.83;3.40;;;;;;;;;;5032236;28;20963;-66
2023/06/28 01:39:10;;;;;;;9.50;3.63;;;;;;;;;;5032224;28;20411;-66
2023/06/28 01:41:36;;;;;;;3.63;3.43;;;;;;;;;;5032095;28;20435;-66
2023/06/28 01:44:04;;;;;;;3.57;3.37;;;;;;;;;;5032031;28;20462;-66
2023/06/28 01:46:33;;;;;;;4.70;3.00;;;;;;;;;;5032100;28;20417;-66
2023/06/28 01:48:59;;;;;;;3.33;3.03;;;;;;;;;;5032073;28;20459;-66
2023/06/28 01:51:25;;;;;;;4.47;3.07;;;;;;;;;;5031674;28;20404;-66
2023/06/28 01:53:51;;;;;;;3.30;3.00;;;;;;;;;;5032207;28;20388;-66
2023/06/28 01:56:17;;;;;;;7.70;3.47;;;;;;;;;;5031604;28;20992;-59
2023/06/28 01:58:43;;;;;;;5.80;2.93;;;;;;;;;;5031780;28;20494;-59
2023/06/28 02:01:09;;;;;;;3.57;3.37;;;;;;;;;;5031708;28;20416;-59
2023/06/28 02:03:35;;;;;;;4.13;3.50;;;;;;;;;;5031925;28;20478;-59
2023/06/28 02:06:01;;;;;;;8.00;3.37;;;;;;;;;;5031840;28;20919;-59
2023/06/28 02:08:29;;;;;;;3.40;3.20;;;;;;;;;;5032959;28;20487;-59
2023/06/28 02:10:55;;;;;;;3.60;3.30;;;;;;;;;;5035528;28;20993;-59
2023/06/28 02:13:21;;;;;;;3.60;3.30;;;;;;;;;;5034001;28;20526;-59
2023/06/28 02:15:47;;;;;;;4.60;4.20;;;;;;;;;;5034217;28;20416;-59
2023/06/28 02:18:14;;;;;;;5.47;3.70;;;;;;;;;;5034293;28;20939;-60
2023/06/28 02:20:42;;;;;;;3.57;3.37;;;;;;;;;;5034236;28;20421;-59
2023/06/28 02:23:08;;;;;;;5.00;3.60;;;;;;;;;;5034031;28;20482;-59
2023/06/28 02:25:34;;;;;;;3.43;3.27;;;;;;;;;;5034234;28;20423;-60
2023/06/28 02:28:02;;;;;;;3.20;3.10;;;;;;;;;;5035057;28;20455;-59
2023/06/28 02:30:28;;;;;;;3.77;3.57;;;;;;;;;;5034991;28;20550;-60
2023/06/28 02:32:56;;;;;;;3.93;3.43;;;;;;;;;;5033683;28;20508;-59
2023/06/28 02:35:22;;;;;;;3.30;3.10;;;;;;;;;;5034616;28;20963;-60
2023/06/28 02:37:48;;;;;;;2.90;2.70;;;;;;;;;;5034856;28;20445;-60
2023/06/28 02:40:14;;;;;;;6.73;3.40;;;;;;;;;;5034960;28;20427;-59
2023/06/28 02:42:40;;;;;;;4.13;3.83;;;;;;;;;;5034872;28;20420;-59
2023/06/28 02:45:06;;;;;;;3.47;3.30;;;;;;;;;;5034948;28;20432;-59
2023/06/28 02:47:32;;;;;;;5.70;3.40;;;;;;;;;;5034595;28;20467;-60
2023/06/28 02:50:04;;;;;;;6.70;3.60;;;;;;;;;;5034677;28;20417;-60
2023/06/28 02:52:29;;;;;;;3.00;2.90;;;;;;;;;;5034610;28;20522;-60
2023/06/28 02:54:55;;;;;;;4.13;3.77;;;;;;;;;;5034659;28;20511;-60
2023/06/28 02:57:21;;;;;;;3.67;3.40;;;;;;;;;;5034490;28;20446;-60
2023/06/28 02:59:50;;;;;;;4.70;3.70;;;;;;;;;;5034359;28;20418;-60
2023/06/28 03:02:18;;;;;;;4.70;3.93;;;;;;;;;;5034445;28;20881;-60
2023/06/28 03:04:44;;;;;;;3.93;3.30;;;;;;;;;;5034414;28;20840;-60
2023/06/28 03:07:14;;;;;;;3.73;3.40;;;;;;;;;;5034302;28;20491;-60
2023/06/28 03:09:42;;;;;;;5.53;4.07;;;;;;;;;;5034270;28;20438;-59
2023/06/28 03:12:09;;;;;;;7.03;4.13;;;;;;;;;;5034273;28;20949;-60
2023/06/28 03:14:35;;;;;;;6.80;3.43;;;;;;;;;;5034057;28;20421;-60
2023/06/28 03:17:01;;;;;;;6.77;3.67;;;;;;;;;;5034310;28;20882;-60
2023/06/28 03:19:29;;;;;;;7.60;3.60;;;;;;;;;;5032898;28;20432;-60
2023/06/28 03:21:55;;;;;;;5.10;3.90;;;;;;;;;;5034212;28;20487;-60
2023/06/28 03:24:21;;;;;;;3.77;3.43;;;;;;;;;;5034105;28;20419;-60
2023/06/28 03:26:47;;;;;;;4.10;3.20;;;;;;;;;;5033961;28;20406;-60
2023/06/28 03:29:13;;;;;;;4.30;3.07;;;;;;;;;;5033862;28;20479;-60
2023/06/28 03:31:39;;;;;;;3.67;3.37;;;;;;;;;;5033962;28;20393;-60
2023/06/28 03:34:05;;;;;;;6.50;4.23;;;;;;;;;;5033790;28;20917;-60
2023/06/28 03:36:34;;;;;;;4.37;3.40;;;;;;;;;;5033553;28;20503;-60
2023/06/28 03:39:00;;;;;;;3.47;3.20;;;;;;;;;;5033524;28;20444;-60
2023/06/28 03:41:27;;;;;;;3.60;3.40;;;;;;;;;;5033638;28;20518;-60
2023/06/28 03:43:53;;;;;;;3.87;3.47;;;;;;;;;;5033497;28;20439;-60
2023/06/28 03:46:19;;;;;;;5.30;3.70;;;;;;;;;;5033610;28;20454;-60
2023/06/28 03:48:45;;;;;;;6.13;3.50;;;;;;;;;;5033413;28;20498;-60
2023/06/28 03:51:11;;;;;;;3.97;3.77;;;;;;;;;;5033698;28;20415;-60
2023/06/28 03:53:37;;;;;;;10.43;4.30;;;;;;;;;;5032780;28;20990;-61
2023/06/28 03:56:03;;;;;;;3.53;3.23;;;;;;;;;;5032991;28;20427;-61
2023/06/28 03:58:31;;;;;;;3.70;3.40;;;;;;;;;;5032080;28;20821;-61
2023/06/28 04:00:57;;;;;;;3.67;3.47;;;;;;;;;;5033350;28;20792;-61
2023/06/28 04:03:26;;;;;;;5.83;4.10;;;;;;;;;;5033183;28;20445;-61
2023/06/28 04:05:52;;;;;;;4.53;4.13;;;;;;;;;;5033121;28;20420;-61
2023/06/28 04:08:26;;;;;;;4.60;3.57;;;;;;;;;;5033363;28;20476;-61
2023/06/28 04:10:52;;;;;;;3.70;3.50;;;;;;;;;;5033147;28;20412;-60
2023/06/28 04:13:18;;;;;;;3.63;3.33;;;;;;;;;;5033204;28;20427;-60
2023/06/28 04:15:47;;;;;;;3.67;3.37;;;;;;;;;;5033249;28;20415;-60
2023/06/28 04:18:14;;;;;;;5.73;3.57;;;;;;;;;;5032989;28;20772;-60
2023/06/28 04:20:42;;;;;;;6.70;3.60;;;;;;;;;;5032925;28;20428;-60
2023/06/28 04:23:08;;;;;;;4.03;3.47;;;;;;;;;;5032936;28;20445;-60
2023/06/28 04:25:34;;;;;;;6.60;3.90;;;;;;;;;;5032880;28;20414;-60
2023/06/28 04:28:03;;;;;;;5.80;3.70;;;;;;;;;;5032733;28;20468;-60
2023/06/28 04:30:31;;;;;;;4.30;3.73;;;;;;;;;;5032469;28;20494;-60
2023/06/28 04:32:57;;;;;;;3.80;3.50;;;;;;;;;;5032555;28;20496;-60
2023/06/28 04:35:25;;;;;;;14.83;4.40;;;;;;;;;;5032980;28;20485;-60
2023/06/28 04:37:56;;;;;;;6.97;3.47;;;;;;;;;;5032328;28;20946;-60
2023/06/28 04:40:22;;;;;;;6.03;3.97;;;;;;;;;;5031721;28;20416;-60
2023/06/28 04:42:57;;;;;;;5.33;3.50;;;;;;;;;;5032520;28;20419;-60
2023/06/28 04:45:35;;;;;;;3.50;3.20;;;;;;;;;;5032780;28;20412;-60
2023/06/28 04:48:03;;;;;;;5.00;3.90;;;;;;;;;;5032725;28;20899;-62
2023/06/28 04:50:29;;;;;;;3.63;3.43;;;;;;;;;;5033465;28;20441;-62
2023/06/28 04:52:55;;;;;;;6.20;3.60;;;;;;;;;;5032802;28;20894;-61
2023/06/28 04:55:32;;;;;;;9.83;3.90;;;;;;;;;;5032817;28;20421;-60
2023/06/28 04:58:02;;;;;;;4.10;3.20;;;;;;;;;;5032538;28;20504;-60
2023/06/28 05:00:28;;;;;;;3.73;3.43;;;;;;;;;;5032755;28;20429;-60
2023/06/28 05:02:56;;;;;;;4.93;3.63;;;;;;;;;;5032468;28;20435;-60
2023/06/28 05:05:22;;;;;;;5.33;3.90;;;;;;;;;;5032744;28;20413;-62
2023/06/28 05:07:48;;;;;;;14.67;12.60;;;;;;;;;;5032303;28;20466;-62
2023/06/28 05:10:14;;;;;;;9.10;8.20;;;;;;;;;;5032400;28;20919;-62
2023/06/28 05:12:40;;;;;;;5.03;4.47;;;;;;;;;;5032411;28;20406;-62
2023/06/28 05:15:07;;;;;;;5.43;5.00;;;;;;;;;;5032402;28;20419;-62
2023/06/28 05:17:35;;;;;;;5.30;4.90;;;;;;;;;;5032427;28;20421;-62
2023/06/28 05:20:04;;;;;;;4.43;3.70;;;;;;;;;;5032485;28;20791;-61
2023/06/28 05:22:30;;;;;;;8.03;3.50;;;;;;;;;;5032402;28;20446;-61
2023/06/28 05:24:56;;;;;;;6.30;3.20;;;;;;;;;;5032199;28;20918;-61
2023/06/28 05:27:24;;;;;;;3.95;3.35;;;;;;;;;;5031376;28;20432;-60
2023/06/28 05:29:50;;;;;;;6.43;5.80;;;;;;;;;;5031657;28;20195;-62
2023/06/28 05:32:16;;;;;;;4.17;3.73;;;;;;;;;;5032395;28;20472;-60
2023/06/28 05:34:42;;;;;;;6.30;3.50;;;;;;;;;;5032154;28;20516;-60
2023/06/28 05:37:08;;;;;;;4.93;3.70;;;;;;;;;;5031980;28;20418;-60
2023/06/28 05:39:36;;;;;;;3.60;3.20;;;;;;;;;;5032062;28;20987;-60
2023/06/28 05:42:03;;;;;;;3.80;3.20;;;;;;;;;;5031958;28;20425;-60
2023/06/28 05:44:28;;;;;;;4.20;3.80;;;;;;;;;;5035851;28;20928;-60
2023/06/28 05:46:57;;;;;;;5.50;3.53;;;;;;;;;;5036289;28;20499;-60
2023/06/28 05:49:23;;;;;;;21.20;10.07;;;;;;;;;;5035441;28;20430;-60
2023/06/28 05:51:49;;;;;;;6.23;4.83;;;;;;;;;;5035791;28;20546;-60
2023/06/28 05:54:15;;;;;;;4.37;3.60;;;;;;;;;;5035514;28;20507;-60
2023/06/28 05:56:41;;;;;;;4.30;3.90;;;;;;;;;;5035679;28;20428;-60
2023/06/28 05:59:07;;;;;;;4.40;4.10;;;;;;;;;;5035525;28;20438;-60
2023/06/28 06:01:33;;;;;;;4.87;3.80;;;;;;;;;;5034987;28;20492;-61
2023/06/28 06:03:59;;;;;;;8.43;3.23;;;;;;;;;;5035641;28;20516;-61
2023/06/28 06:06:25;;;;;;;3.57;3.20;;;;;;;;;;5035446;28;20960;-60
2023/06/28 06:08:53;;;;;;;7.93;3.73;;;;;;;;;;5035089;28;20477;-60
2023/06/28 06:11:19;;;;;;;52.10;40.17;;;;;;;;;;5035434;28;20410;-60
2023/06/28 06:13:45;;;;;;;10.00;7.47;;;;;;;;;;5035138;28;20404;-60
2023/06/28 06:16:13;;;;;;;9.90;4.13;;;;;;;;;;5035371;28;20411;-60
2023/06/28 06:18:40;;;;;;;6.43;5.23;;;;;;;;;;5034686;28;20474;-60
2023/06/28 06:21:07;;;;;;;6.20;3.60;;;;;;;;;;5034948;28;20410;-60
2023/06/28 06:23:33;;;;;;;10.33;3.70;;;;;;;;;;5034852;28;20417;-60
2023/06/28 06:25:58;;;;;;;11.30;3.50;;;;;;;;;;5033544;28;20443;-60
2023/06/28 06:28:27;;;;;;;21.13;4.73;;;;;;;;;;5034223;28;20979;-60
2023/06/28 06:30:53;;;;;;;35.50;5.50;;;;;;;;;;5034824;28;20458;-60
2023/06/28 06:33:19;;;;;;;13.10;4.23;;;;;;;;;;5033953;28;20516;-60
2023/06/28 06:35:45;;;;;;;9.40;3.33;;;;;;;;;;5034849;28;20421;-60
2023/06/28 06:38:11;;;;;;;9.20;3.53;;;;;;;;;;5034911;28;20417;-60
2023/06/28 06:40:41;;;;;;;17.67;3.57;;;;;;;;;;5034277;28;20443;-60
2023/06/28 06:43:07;;;;;;;6.50;3.00;;;;;;;;;;5033707;28;20436;-60
2023/06/28 06:45:33;;;;;;;18.03;4.30;;;;;;;;;;5033469;28;20411;-60
2023/06/28 06:47:59;;;;;;;17.83;4.10;;;;;;;;;;5033193;28;20462;-60
2023/06/28 06:50:25;;;;;;;7.63;3.20;;;;;;;;;;5033721;28;20445;-60
2023/06/28 06:52:53;;;;;;;10.33;2.97;;;;;;;;;;5034126;28;20412;-60
2023/06/28 06:55:23;;;;;;;15.63;3.20;;;;;;;;;;5034631;28;20436;-60
2023/06/28 06:57:49;;;;;;;4.53;3.13;;;;;;;;;;5034755;28;20503;-60
2023/06/28 07:00:17;;;;;;;7.70;3.10;;;;;;;;;;5034695;28;20758;-60
2023/06/28 07:02:43;;;;;;;3.80;2.87;;;;;;;;;;5034407;28;20419;-60
2023/06/28 07:05:09;;;;;;;8.43;3.20;;;;;;;;;;5034574;28;20981;-60
2023/06/28 07:07:35;;;;;;;4.70;2.80;;;;;;;;;;5034644;28;20456;-61
2023/06/28 07:10:03;;;;;;;4.60;2.60;;;;;;;;;;5034075;28;20451;-60
2023/06/28 07:12:34;;;;;;;4.40;3.07;;;;;;;;;;5034253;28;20414;-60
2023/06/28 07:15:00;;;;;;;8.83;2.43;;;;;;;;;;5033653;28;20447;-60
2023/06/28 07:17:26;;;;;;;3.17;2.97;;;;;;;;;;5034262;28;20416;-61
2023/06/28 07:19:52;;;;;;;11.57;3.83;;;;;;;;;;5034196;28;21053;-61
2023/06/28 07:22:18;;;;;;;6.40;3.37;;;;;;;;;;5034048;28;20494;-61
2023/06/28 07:24:44;;;;;;;7.30;3.13;;;;;;;;;;5033754;28;20420;-61
2023/06/28 07:27:10;;;;;;;7.47;4.10;;;;;;;;;;5033911;28;20426;-60
2023/06/28 07:29:35;;;;;;;5.87;4.63;;;;;;;;;;5033471;28;20435;-61
2023/06/28 07:32:02;;;;;;;8.40;3.93;;;;;;;;;;5033576;28;20516;-60
2023/06/28 07:34:30;;;;;;;4.87;3.10;;;;;;;;;;5033721;28;20854;-61
2023/06/28 07:36:56;;;;;;;5.23;2.83;;;;;;;;;;5033976;28;20507;-60
2023/06/28 07:39:24;;;;;;;6.60;3.27;;;;;;;;;;5033937;28;20434;-60
2023/06/28 07:41:50;;;;;;;8.13;3.90;;;;;;;;;;5033797;28;20861;-61
2023/06/28 07:44:16;;;;;;;7.60;3.37;;;;;;;;;;5033547;28;20493;-61
2023/06/28 07:46:42;;;;;;;13.77;3.50;;;;;;;;;;5033714;28;20457;-61
2023/06/28 07:49:11;;;;;;;9.20;4.47;;;;;;;;;;5033581;28;20963;-61
2023/06/28 07:51:39;;;;;;;4.03;2.97;;;;;;;;;;5032370;28;20421;-60
2023/06/28 07:54:05;;;;;;;2.77;2.57;;;;;;;;;;5033657;28;20927;-60
2023/06/28 07:56:31;;;;;;;3.20;2.90;;;;;;;;;;5033337;28;20432;-60
2023/06/28 07:59:01;;;;;;;3.70;3.40;;;;;;;;;;5033279;28;20418;-60
2023/06/28 08:01:27;;;;;;;5.30;3.13;;;;;;;;;;5033338;28;20441;-60
2023/06/28 08:03:53;;;;;;;3.27;2.73;;;;;;;;;;5033046;28;20423;-60
2023/06/28 08:06:19;;;;;;;4.97;2.90;;;;;;;;;;5032504;28;20506;-60
2023/06/28 08:08:47;;;;;;;8.93;3.73;;;;;;;;;;5032850;28;21050;-60
2023/06/28 08:11:13;;;;;;;7.53;2.63;;;;;;;;;;5032933;28;20526;-60
2023/06/28 08:13:39;;;;;;;3.00;2.60;;;;;;;;;;5032790;28;20875;-60
2023/06/28 08:16:05;;;;;;;3.97;2.70;;;;;;;;;;5033202;28;20422;-60
2023/06/28 08:18:31;;;;;;;3.50;2.80;;;;;;;;;;5032794;28;20416;-60
2023/06/28 08:20:57;;;;;;;6.70;3.77;;;;;;;;;;5031784;28;20533;-60
2023/06/28 08:23:25;;;;;;;8.90;2.70;;;;;;;;;;5033322;28;20418;-60
2023/06/28 08:25:51;;;;;;;3.87;3.47;;;;;;;;;;5032867;28;20424;-60
2023/06/28 08:28:17;;;;;;;11.30;3.13;;;;;;;;;;5032753;28;20462;-61
2023/06/28 08:30:43;;;;;;;2.63;2.17;;;;;;;;;;5033077;28;20928;-60
2023/06/28 08:33:09;;;;;;;5.30;3.23;;;;;;;;;;5032815;28;20453;-60
2023/06/28 08:35:35;;;;;;;8.83;3.03;;;;;;;;;;5032834;28;20428;-60
2023/06/28 08:38:01;;;;;;;3.83;2.87;;;;;;;;;;5032646;28;20423;-60
2023/06/28 08:40:30;;;;;;;3.23;2.70;;;;;;;;;;5032748;28;20647;-60
2023/06/28 08:43:01;;;;;;;4.27;3.17;;;;;;;;;;5032707;28;20422;-60
2023/06/28 08:45:27;;;;;;;11.07;3.50;;;;;;;;;;5032922;28;20442;-60
2023/06/28 08:47:55;;;;;;;6.57;2.97;;;;;;;;;;5032492;28;20473;-60
2023/06/28 08:50:21;;;;;;;5.90;3.33;;;;;;;;;;5032719;28;20504;-60
2023/06/28 08:52:49;;;;;;;2.80;2.70;;;;;;;;;;5032584;28;20854;-60
2023/06/28 08:55:16;;;;;;;9.80;2.87;;;;;;;;;;5032538;28;20442;-61
2023/06/28 08:57:42;;;;;;;7.73;3.40;;;;;;;;;;5032614;28;20418;-60
2023/06/28 09:00:12;;;;;;;2.93;2.70;;;;;;;;;;5032640;28;20454;-60
2023/06/28 09:02:41;;;;;;;4.60;2.70;;;;;;;;;;5032577;28;20398;-60
2023/06/28 09:05:08;;;;;;;3.33;3.07;;;;;;;;;;5032421;28;20413;-60
2023/06/28 09:07:35;;;;;;;3.90;2.90;;;;;;;;;;5032406;28;20470;-60
2023/06/28 09:10:01;;;;;;;3.80;2.97;;;;;;;;;;5032394;28;20442;-61
2023/06/28 09:12:31;;;;;;;4.00;3.20;;;;;;;;;;5032260;28;20423;-61
2023/06/28 09:14:59;;;;;;;6.33;2.80;;;;;;;;;;5032168;28;20423;-61
2023/06/28 09:17:30;;;;;;;13.90;3.60;;;;;;;;;;5034048;28;20411;-61
2023/06/28 09:20:01;;;;;;;6.30;2.47;;;;;;;;;;5036253;28;20495;-61
2023/06/28 09:22:27;;;;;;;3.87;2.57;;;;;;;;;;5035975;28;20961;-61
2023/06/28 09:24:53;;;;;;;5.00;3.60;;;;;;;;;;5036368;28;20416;-61
2023/06/28 09:27:22;;;;;;;4.80;2.90;;;;;;;;;;5036225;28;20448;-61
2023/06/28 09:29:59;;;;;;;5.27;2.37;;;;;;;;;;5036101;28;20407;-60
2023/06/28 09:32:25;;;;;;;4.17;2.50;;;;;;;;;;5036171;28;20490;-61
2023/06/28 09:34:51;;;;;;;2.77;2.53;;;;;;;;;;5035990;28;20411;-61
2023/06/28 09:37:19;;;;;;;5.20;2.70;;;;;;;;;;5036134;28;20811;-61
2023/06/28 09:39:45;;;;;;;5.43;3.20;;;;;;;;;;5035011;28;20487;-61
2023/06/28 09:42:11;;;;;;;6.20;2.93;;;;;;;;;;5035461;28;20442;-60
2023/06/28 09:44:37;;;;;;;8.13;4.07;;;;;;;;;;5036064;28;20462;-61
2023/06/28 09:50:31;;;;;;;10.13;3.33;;;;;;;;;;5035236;28;20430;-60
2023/06/28 09:56:31;;;;;;;7.47;3.30;;;;;;;;;;5035558;28;20406;-61
2023/06/28 09:58:57;;;;;;;8.47;2.37;;;;;;;;;;5035676;28;20544;-64
2023/06/28 10:01:23;;;;;;;5.77;4.87;;;;;;;;;;5035605;28;20453;-64
2023/06/28 10:03:51;;;;;;;6.20;3.00;;;;;;;;;;5035693;28;20819;-64
2023/06/28 10:06:17;;;;;;;8.83;3.53;;;;;;;;;;5035659;28;20444;-64
2023/06/28 10:08:43;;;;;;;8.50;3.17;;;;;;;;;;5035654;28;20523;-64
2023/06/28 10:11:12;;;;;;;4.33;2.67;;;;;;;;;;5035481;28;20414;-64
2023/06/28 10:13:40;;;;;;;5.87;2.80;;;;;;;;;;5035638;28;20399;-64
2023/06/28 10:16:08;;;;;;;5.43;3.00;;;;;;;;;;5035196;28;20823;-64
2023/06/28 10:18:34;;;;;;;8.80;3.03;;;;;;;;;;5035274;28;20411;-64
2023/06/28 10:21:00;;;;;;;3.00;2.73;;;;;;;;;;5035406;28;20800;-64
2023/06/28 10:23:29;;;;;;;7.20;2.57;;;;;;;;;;5035299;28;20502;-63
2023/06/28 10:25:55;;;;;;;6.80;3.10;;;;;;;;;;5035390;28;20430;-63
2023/06/28 10:28:21;;;;;;;4.77;2.33;;;;;;;;;;5034564;28;20453;-63
2023/06/28 10:30:47;;;;;;;2.30;2.20;;;;;;;;;;5034036;28;20433;-63
2023/06/28 10:33:17;;;;;;;3.57;2.47;;;;;;;;;;5035423;28;20619;-63
2023/06/28 10:35:44;;;;;;;6.13;2.63;;;;;;;;;;5035262;28;20767;-63
2023/06/28 10:38:10;;;;;;;5.70;2.87;;;;;;;;;;5035052;28;20437;-64
2023/06/28 10:40:37;;;;;;;6.33;2.73;;;;;;;;;;5035308;28;20409;-64
2023/06/28 10:43:03;;;;;;;3.20;2.50;;;;;;;;;;5033554;28;20492;-64
2023/06/28 10:45:36;;;;;;;2.10;1.83;;;;;;;;;;5034730;28;20554;-64
2023/06/28 10:48:02;;;;;;;4.10;2.53;;;;;;;;;;5034677;28;20552;-64
2023/06/28 10:50:30;;;;;;;3.43;1.83;;;;;;;;;;5034635;28;20419;-64
2023/06/28 10:52:57;;;;;;;4.10;2.20;;;;;;;;;;5035196;28;20869;-64
2023/06/28 10:55:30;;;;;;;4.23;2.47;;;;;;;;;;5034494;28;20786;-64
2023/06/28 10:58:06;;;;;;;7.30;2.13;;;;;;;;;;5034699;28;20443;-64
2023/06/28 11:00:40;;;;;;;3.40;1.80;;;;;;;;;;5034608;28;20796;-65
2023/06/28 11:03:07;;;;;;;5.03;1.97;;;;;;;;;;5034468;28;20442;-65
2023/06/28 11:05:45;;;;;;;3.70;2.30;;;;;;;;;;5033089;28;20417;-65
2023/06/28 11:08:12;;;;;;;2.30;1.97;;;;;;;;;;5034412;28;20477;-65
2023/06/28 11:10:39;;;;;;;2.60;2.20;;;;;;;;;;5034321;28;20429;-65
2023/06/28 11:13:08;;;;;;;2.00;1.90;;;;;;;;;;5034298;28;20818;-64
2023/06/28 11:15:35;;;;;;;9.43;5.20;;;;;;;;;;5034515;28;20420;-64
2023/06/28 11:18:11;;;;;;;14.50;11.30;;;;;;;;;;5034260;28;20439;-64
2023/06/28 11:20:59;;;;;;;6.47;1.90;;;;;;;;;;5034095;28;20734;-64
2023/06/28 11:23:29;;;;;;;3.67;2.20;;;;;;;;;;5034039;28;20446;-64
2023/06/28 11:25:56;;;;;;;3.67;2.60;;;;;;;;;;5033915;28;20494;-64
2023/06/28 11:28:28;;;;;;;5.70;2.27;;;;;;;;;;5033795;28;20471;-64
2023/06/28 11:30:54;;;;;;;4.87;2.23;;;;;;;;;;5033944;28;20407;-64
2023/06/28 11:33:20;;;;;;;3.40;2.47;;;;;;;;;;5033608;28;20475;-63
2023/06/28 11:35:46;;;;;;;7.03;2.33;;;;;;;;;;5033952;28;20910;-64
2023/06/28 11:38:13;;;;;;;4.00;2.40;;;;;;;;;;5032593;28;20946;-65
2023/06/28 11:40:39;;;;;;;2.00;1.80;;;;;;;;;;5031547;28;20422;-64
2023/06/28 11:43:05;;;;;;;4.10;2.10;;;;;;;;;;5033779;28;20859;-64
2023/06/28 11:45:34;;;;;;;2.07;2.07;;;;;;;;;;5033804;28;20435;-64
2023/06/28 11:48:03;;;;;;;6.03;2.30;;;;;;;;;;5033678;28;20469;-64
2023/06/28 11:50:31;;;;;;;2.40;2.10;;;;;;;;;;5032205;28;20420;-64
2023/06/28 11:53:00;;;;;;;2.13;1.90;;;;;;;;;;5033980;28;20800;-65
2023/06/28 11:55:29;;;;;;;2.87;2.37;;;;;;;;;;5033454;28;20434;-64
2023/06/28 11:57:55;;;;;;;2.30;2.20;;;;;;;;;;5033488;28;20445;-65
2023/06/28 12:00:21;;;;;;;2.50;2.00;;;;;;;;;;5032912;28;20512;-64
2023/06/28 12:02:51;;;;;;;5.07;2.50;;;;;;;;;;5033192;28;20454;-64
2023/06/28 12:05:20;;;;;;;3.17;1.90;;;;;;;;;;5032059;28;20957;-65
2023/06/28 12:07:46;;;;;;;1.80;1.70;;;;;;;;;;5051244;22;20496;-65
2023/06/28 12:10:12;;;;;;;3.17;2.20;;;;;;;;;;5013215;28;20433;-65
2023/06/28 12:12:41;;;;;;;2.00;1.90;;;;;;;;;;5013337;28;20916;-65
2023/06/28 12:15:12;;;;;;;3.30;3.10;;;;;;;;;;5013381;28;20412;-65
2023/06/28 12:17:41;;;;;;;2.03;1.93;;;;;;;;;;5013042;28;20443;-65
2023/06/28 12:20:08;;;;;;;2.80;2.17;;;;;;;;;;5013400;28;20405;-65
2023/06/28 12:22:39;;;;;;;9.87;1.87;;;;;;;;;;5013120;28;20436;-65
2023/06/28 12:25:06;;;;;;;2.60;2.07;;;;;;;;;;5013256;28;20421;-65
2023/06/28 12:27:32;;;;;;;2.73;1.87;;;;;;;;;;5013173;28;20491;-65
2023/06/28 12:29:58;;;;;;;6.80;2.17;;;;;;;;;;5012088;28;20428;-64
2023/06/28 12:32:25;;;;;;;4.30;2.20;;;;;;;;;;5013080;28;20440;-65
2023/06/28 12:34:51;;;;;;;3.77;2.30;;;;;;;;;;5013150;28;21156;-64
2023/06/28 12:37:17;;;;;;;2.93;1.97;;;;;;;;;;5013147;28;20404;-65
2023/06/28 12:39:47;;;;;;;2.33;1.70;;;;;;;;;;5013238;28;20415;-64
2023/06/28 12:42:19;;;;;;;1.87;1.77;;;;;;;;;;5013468;28;20428;-64
2023/06/28 12:44:49;;;;;;;6.63;2.00;;;;;;;;;;5013102;28;20405;-64
2023/06/28 12:47:14;;;;;;;4.13;2.07;;;;;;;;;;5012760;28;20967;-64
2023/06/28 12:49:41;;;;;;;7.80;2.13;;;;;;;;;;5012818;28;20528;-64
2023/06/28 12:52:07;;;;;;;1.93;1.83;;;;;;;;;;5012920;28;20507;-64
2023/06/28 12:54:33;;;;;;;2.23;2.00;;;;;;;;;;5012761;28;20424;-64
2023/06/28 12:57:00;;;;;;;5.00;2.20;;;;;;;;;;5011303;28;20428;-64
2023/06/28 12:59:29;;;;;;;2.40;1.97;;;;;;;;;;5012756;28;20470;-64
2023/06/28 13:01:55;;;;;;;2.20;2.00;;;;;;;;;;5012545;28;20420;-64
2023/06/28 13:04:21;;;;;;;2.27;2.17;;;;;;;;;;5012433;28;20445;-64
2023/06/28 13:06:47;;;;;;;1.90;1.80;;;;;;;;;;5012601;28;20483;-64
2023/06/28 13:09:13;;;;;;;3.23;1.73;;;;;;;;;;5012355;28;20534;-64
2023/06/28 13:11:39;;;;;;;2.80;2.13;;;;;;;;;;5012522;28;20420;-64
2023/06/28 13:14:05;;;;;;;2.77;2.27;;;;;;;;;;5012558;28;20839;-64
2023/06/28 13:16:33;;;;;;;3.50;2.30;;;;;;;;;;5012606;28;20409;-64
2023/06/28 13:18:59;;;;;;;2.63;1.90;;;;;;;;;;5012485;28;20499;-64
2023/06/28 13:21:25;;;;;;;2.63;2.10;;;;;;;;;;5012421;28;20840;-64
2023/06/28 13:23:51;;;;;;;3.10;2.03;;;;;;;;;;5012034;28;20440;-64
2023/06/28 13:26:17;;;;;;;3.60;1.97;;;;;;;;;;5012400;28;20413;-64
2023/06/28 13:28:44;;;;;;;1.40;1.30;;;;;;;;;;5012174;28;20460;-64
2023/06/28 13:31:12;;;;;;;4.30;2.17;;;;;;;;;;5012342;28;20479;-64
2023/06/28 13:33:38;;;;;;;3.90;2.20;;;;;;;;;;5012413;28;20906;-64
2023/06/28 13:36:04;;;;;;;1.93;1.53;;;;;;;;;;5012222;28;20440;-63
2023/06/28 13:38:30;;;;;;;2.77;1.80;;;;;;;;;;5012080;28;20520;-63
2023/06/28 13:40:59;;;;;;;3.27;1.87;;;;;;;;;;5012243;28;20445;-63
2023/06/28 13:43:25;;;;;;;6.33;1.97;;;;;;;;;;5012278;28;20912;-63
2023/06/28 13:45:51;;;;;;;1.87;1.83;;;;;;;;;;5012255;28;20413;-63
2023/06/28 13:48:18;;;;;;;8.10;2.40;;;;;;;;;;5010664;28;20483;-64
2023/06/28 13:50:44;;;;;;;2.87;2.67;;;;;;;;;;5012355;28;20472;-64
2023/06/28 13:53:10;;;;;;;1.93;1.83;;;;;;;;;;5012186;28;20486;-64
2023/06/28 13:55:36;;;;;;;2.30;1.40;;;;;;;;;;5012146;28;20837;-63
2023/06/28 13:58:02;;;;;;;1.80;1.70;;;;;;;;;;5012087;28;20848;-64
2023/06/28 14:00:29;;;;;;;5.20;2.20;;;;;;;;;;5012559;28;20412;-63
2023/06/28 14:02:55;;;;;;;1.90;1.80;;;;;;;;;;5011933;28;20416;-64
2023/06/28 14:05:21;;;;;;;3.37;2.10;;;;;;;;;;5015423;28;20482;-63
2023/06/28 14:07:47;;;;;;;2.00;1.90;;;;;;;;;;5015641;28;20463;-63
2023/06/28 14:10:13;;;;;;;5.43;2.20;;;;;;;;;;5015655;28;20463;-64
2023/06/28 14:12:39;;;;;;;4.40;2.13;;;;;;;;;;5015778;28;20408;-63
2023/06/28 14:15:06;;;;;;;2.43;1.80;;;;;;;;;;5014117;28;20412;-63
2023/06/28 14:17:35;;;;;;;4.23;1.70;;;;;;;;;;5014579;28;20463;-64
2023/06/28 14:20:01;;;;;;;1.87;1.67;;;;;;;;;;5014462;28;21080;-64
2023/06/28 14:22:27;;;;;;;3.33;2.60;;;;;;;;;;5014250;28;20464;-64
2023/06/28 14:24:53;;;;;;;4.10;2.10;;;;;;;;;;5015347;28;20437;-64
2023/06/28 14:27:19;;;;;;;2.53;2.33;;;;;;;;;;5015596;28;20412;-64
2023/06/28 14:29:45;;;;;;;2.50;1.60;;;;;;;;;;5014501;28;20947;-64
2023/06/28 14:32:13;;;;;;;2.20;2.00;;;;;;;;;;5014154;28;20986;-64
2023/06/28 14:34:39;;;;;;;1.60;1.60;;;;;;;;;;5015009;28;20448;-64
2023/06/28 14:37:05;;;;;;;2.67;1.57;;;;;;;;;;5015184;28;20417;-64
2023/06/28 14:39:31;;;;;;;3.20;1.90;;;;;;;;;;5015056;28;20488;-64
2023/06/28 14:41:57;;;;;;;5.63;1.73;;;;;;;;;;5014957;28;20519;-64
2023/06/28 14:44:23;;;;;;;2.00;1.93;;;;;;;;;;5014585;28;20420;-64
2023/06/28 14:46:49;;;;;;;3.63;1.97;;;;;;;;;;5015104;28;20964;-64
2023/06/28 14:49:15;;;;;;;2.77;1.90;;;;;;;;;;5014817;28;20476;-64